^^

..:: Storico WU ::..




Lo storico viene creato da WUnderground con i dati che la stazione Meteomincio invia al loro server. L' aggiornamento viene fatto ogni 5 minuti circa, tuttavia possono esserci intervalli pi¨ ampi a causa di errori, interruzioni di servizio o problemi nell' invio tramite FTP.


Storico stazione MeteoMincio
Giorno Sommario per Settembre 16, 2022 Unità:  Inglese    Metrico   Entrambi
Giorno Settimana Mese Anno
  Max: Min: Media:
Temperatura: 86.5 °F 64.8 °F 73.9 °F
Dew Point: 70.5 °F 61.5 °F 65.3 °F
Umidità: 91.2% 53.5% 76%
Velocità vento: 10.3mph 0mph 3.5mph
Raffica: 17.3mph - -
Direzione- - SE
Pressione: 29.7 in 29.5 in -
Precipitazioni: 0 in    
 
 
Tabulato Dati per Settembre 16, 2022
Ora Temperatura Dew Point Pressione Direzione Velocità vento Raffica Umidità Intensità pioggia (oraria) Info solare Situazione
00:04 68.5 °F 63.5 °F 29.6 in Calm   1 mph 84% 0 in 0 W/m2
00:09 68.2 °F 63.3 °F 29.6 in Calm     84% 0 in 0 W/m2
00:14 68 °F 63.3 °F 29.6 in Calm     85% 0 in 0 W/m2
00:19 67.6 °F 63.1 °F 29.6 in Calm     85.5% 0 in 0 W/m2
00:24 67.6 °F 63.3 °F 29.6 in Calm     86% 0 in 0 W/m2
00:29 67.5 °F 63.1 °F 29.7 in Calm     86% 0 in 0 W/m2
00:34 67.1 °F 63 °F 29.7 in Calm     86.6% 0 in 0 W/m2
00:39 66.9 °F 63 °F 29.6 in Calm     87% 0 in 0 W/m2
00:44 67.3 °F 63 °F 29.6 in Calm     86.4% 0 in 0 W/m2
00:49 67.5 °F 63.1 °F 29.6 in Calm     86% 0 in 0 W/m2
00:54 67.3 °F 63.1 °F 29.6 in Calm     86.4% 0 in 0 W/m2
00:59 67.1 °F 63.1 °F 29.6 in Calm     87% 0 in 0 W/m2
01:04 67.1 °F 63.1 °F 29.6 in Calm     87% 0 in 0 W/m2
01:09 67.3 °F 63.3 °F 29.6 in North 0.2 mph 2.3 mph 87% 0 in 0 W/m2
01:14 67.3 °F 63.1 °F 29.6 in Calm   2 mph 86% 0 in 0 W/m2
01:19 66.4 °F 62.2 °F 29.6 in WSW 1 mph 2.3 mph 86.4% 0 in 0 W/m2
01:24 65.8 °F 61.9 °F 29.6 in WSW 1 mph 2.3 mph 87.6% 0 in 0 W/m2
01:29 65.8 °F 62.1 °F 29.6 in West 0.9 mph 2.3 mph 88% 0 in 0 W/m2
01:34 65.8 °F 62.2 °F 29.6 in West 1.2 mph 2.3 mph 88% 0 in 0 W/m2
01:39 65.5 °F 61.9 °F 29.6 in West 1.8 mph 3.5 mph 88% 0 in 0 W/m2
01:43 65.1 °F 61.5 °F 29.6 in West 1.7 mph 2.3 mph 88.2% 0 in 0 W/m2
01:49 65.5 °F 62.1 °F 29.6 in West 0.6 mph 2.3 mph 89% 0 in 0 W/m2
01:54 65.8 °F 62.2 °F 29.6 in West 0.3 mph 2 mph 88.3% 0 in 0 W/m2
01:59 66 °F 62.2 °F 29.6 in West 0.1 mph 2 mph 88% 0 in 0 W/m2
02:04 65.7 °F 62.1 °F 29.6 in ENE 2.3 mph 3.5 mph 88% 0 in 0 W/m2
02:09 65.5 °F 62.1 °F 29.6 in ENE 1.7 mph 3.5 mph 88.6% 0 in 0 W/m2
02:14 65.1 °F 61.9 °F 29.6 in NE 2.2 mph 4 mph 89% 0 in 0 W/m2
02:19 65.1 °F 61.9 °F 29.6 in NE 0.6 mph 4 mph 89% 0 in 0 W/m2
02:24 65.1 °F 62.1 °F 29.6 in NE 1.2 mph 2.3 mph 89.7% 0 in 0 W/m2
02:29 65.3 °F 62.1 °F 29.6 in NE 0.8 mph 2.3 mph 89.6% 0 in 0 W/m2
02:34 65.1 °F 62.1 °F 29.6 in NE 0.6 mph 2.3 mph 89.4% 0 in 0 W/m2
02:39 65.3 °F 62.2 °F 29.6 in NE 1 mph 2.3 mph 90% 0 in 0 W/m2
02:44 65.3 °F 62.2 °F 29.6 in NE 0.2 mph 2.3 mph 90% 0 in 0 W/m2
02:49 65.3 °F 62.2 °F 29.6 in East 1.4 mph 2.3 mph 90% 0 in 0 W/m2
02:54 65.1 °F 62.2 °F 29.6 in ESE 2.3 mph 3.5 mph 90% 0 in 0 W/m2
02:59 65.1 °F 62.1 °F 29.7 in East 1.9 mph 3.5 mph 90% 0 in 0 W/m2
03:04 64.9 °F 62.1 °F 29.6 in ENE 1.1 mph 3 mph 90% 0 in 0 W/m2
03:09 64.9 °F 62.1 °F 29.6 in ENE 0.4 mph 2.3 mph 90.2% 0 in 0 W/m2
03:14 65.1 °F 62.2 °F 29.6 in ENE 0.1 mph 2 mph 90% 0 in 0 W/m2
03:19 64.9 °F 62.1 °F 29.6 in ENE 1 mph 2.3 mph 90% 0 in 0 W/m2
03:24 64.9 °F 61.9 °F 29.6 in ENE 0.2 mph 2.3 mph 90% 0 in 0 W/m2
03:29 64.9 °F 61.9 °F 29.6 in ENE 0.6 mph 3.5 mph 90% 0 in 0 W/m2
03:34 64.9 °F 62.1 °F 29.6 in ENE 1.9 mph 3.5 mph 90.8% 0 in 0 W/m2
03:39 64.8 °F 61.9 °F 29.6 in ENE 2 mph 3.5 mph 90.8% 0 in 0 W/m2
03:44 64.8 °F 62.1 °F 29.6 in ENE 0.9 mph 3 mph 91% 0 in 0 W/m2
03:49 64.8 °F 62.1 °F 29.6 in NE 2.2 mph 4 mph 91% 0 in 0 W/m2
03:54 64.8 °F 62.1 °F 29.7 in NE 2.5 mph 4 mph 91.2% 0 in 0 W/m2
03:59 64.8 °F 62.1 °F 29.6 in NE 2.2 mph 4 mph 91% 0 in 0 W/m2
04:04 64.8 °F 62.1 °F 29.6 in NE 2.2 mph 3.5 mph 91% 0 in 0 W/m2
04:09 64.8 °F 62.1 °F 29.7 in NE 1.8 mph 4 mph 91% 0 in 0 W/m2
04:14 64.8 °F 62.1 °F 29.6 in NE 1.3 mph 3 mph 91% 0 in 0 W/m2
04:19 64.8 °F 62.1 °F 29.6 in ENE 1.9 mph 3.5 mph 91% 0 in 0 W/m2
04:24 64.9 °F 62.1 °F 29.6 in ENE 2.2 mph 3.5 mph 90.5% 0 in 0 W/m2
04:29 64.9 °F 62.1 °F 29.6 in ENE 1.7 mph 3.5 mph 90% 0 in 0 W/m2
04:34 65.1 °F 62.2 °F 29.6 in ENE 0.7 mph 3 mph 90% 0 in 0 W/m2
04:39 65.3 °F 62.2 °F 29.6 in East 1.2 mph 3.5 mph 90% 0 in 0 W/m2
04:44 65.5 °F 62.4 °F 29.6 in East 2.1 mph 5 mph 89.7% 0 in 0 W/m2
04:49 65.8 °F 62.4 °F 29.6 in ENE 2.5 mph 5 mph 89% 0 in 0 W/m2
04:54 65.8 °F 62.4 °F 29.6 in East 2 mph 5 mph 89% 0 in 0 W/m2
04:59 65.7 °F 62.4 °F 29.6 in East 2.7 mph 5 mph 89% 0 in 0 W/m2
05:04 65.7 °F 62.4 °F 29.6 in East 2.6 mph 5 mph 89% 0 in 0 W/m2
05:09 65.7 °F 62.4 °F 29.6 in East 2.2 mph 5 mph 89% 0 in 0 W/m2
05:14 65.7 °F 62.4 °F 29.6 in East 2.7 mph 5 mph 89% 0 in 0 W/m2
05:19 65.8 °F 62.6 °F 29.6 in East 3 mph 5 mph 89% 0 in 0 W/m2
05:24 66 °F 62.6 °F 29.6 in ENE 3.1 mph 5 mph 89% 0 in 0 W/m2
05:29 65.8 °F 62.6 °F 29.6 in ENE 2.9 mph 5 mph 89% 0 in 0 W/m2
05:34 65.8 °F 62.6 °F 29.6 in ENE 3.6 mph 5 mph 89% 0 in 0 W/m2
05:39 65.8 °F 62.6 °F 29.6 in ENE 3.8 mph 6 mph 89% 0 in 0 W/m2
05:44 65.8 °F 62.6 °F 29.6 in ENE 4.4 mph 7 mph 89% 0 in 0 W/m2
05:49 65.8 °F 62.6 °F 29.6 in ENE 4.1 mph 7 mph 89% 0 in 0 W/m2
05:54 65.7 °F 62.4 °F 29.6 in ENE 4.3 mph 7 mph 89% 0 in 0 W/m2
05:59 65.7 °F 62.4 °F 29.6 in ENE 4.3 mph 7 mph 89% 0 in 0 W/m2
06:04 65.7 °F 62.4 °F 29.6 in ENE 3.8 mph 7 mph 89% 0 in 0 W/m2
06:09 65.5 °F 62.4 °F 29.6 in East 3.5 mph 6 mph 89.8% 0 in 0 W/m2
06:14 65.5 °F 62.4 °F 29.6 in East 3.2 mph 6 mph 90% 0 in 0 W/m2
06:19 65.5 °F 62.4 °F 29.6 in East 2.3 mph 5 mph 90% 0 in 0 W/m2
06:24 65.5 °F 62.6 °F 29.6 in East 2.6 mph 5 mph 90% 0 in 0 W/m2
06:29 65.7 °F 62.6 °F 29.6 in ENE 2.7 mph 5 mph 90% 0 in 0 W/m2
06:34 65.7 °F 62.6 °F 29.6 in ENE 3 mph 6 mph 90% 0 in 0 W/m2
06:39 65.7 °F 62.6 °F 29.6 in East 3.1 mph 6 mph 90% 0 in 0 W/m2
06:44 65.7 °F 62.6 °F 29.6 in ENE 3.1 mph 6 mph 90% 0 in 0 W/m2
06:49 65.5 °F 62.6 °F 29.6 in ENE 2 mph 6 mph 90% 0 in 0 W/m2
06:54 65.5 °F 62.4 °F 29.6 in East 1.9 mph 5 mph 90% 0 in 0 W/m2
06:59 65.5 °F 62.6 °F 29.6 in ENE 2.3 mph 3.5 mph 90% 0 in 0 W/m2
07:03 65.5 °F 62.4 °F 29.6 in ENE 2 mph 3.5 mph 90% 0 in 7 W/m2
07:09 65.3 °F 62.6 °F 29.6 in ENE 2.1 mph 4 mph 90.5% 0 in 12 W/m2
07:14 65.5 °F 62.8 °F 29.6 in NE 3.1 mph 5 mph 91% 0 in 14 W/m2
07:19 65.7 °F 62.8 °F 29.6 in ENE 3.4 mph 6 mph 90.4% 0 in 16 W/m2
07:24 65.7 °F 62.8 °F 29.6 in ENE 2.9 mph 6 mph 90% 0 in 16 W/m2
07:29 65.7 °F 62.8 °F 29.6 in ENE 3 mph 4.6 mph 90% 0 in 16 W/m2
07:34 65.7 °F 62.6 °F 29.6 in ENE 3 mph 5 mph 90% 0 in 16 W/m2
07:39 65.7 °F 62.6 °F 29.6 in ENE 2.9 mph 4 mph 90% 0 in 16 W/m2
07:44 65.7 °F 62.6 °F 29.6 in ENE 3 mph 4 mph 90% 0 in 21 W/m2
07:49 65.5 °F 62.6 °F 29.6 in ENE 2.5 mph 4 mph 90.3% 0 in 42 W/m2
07:54 65.7 °F 63 °F 29.6 in NE 2.4 mph 4 mph 91% 0 in 40 W/m2
07:59 65.8 °F 63.1 °F 29.6 in NE 2.5 mph 4 mph 91% 0 in 63 W/m2
08:04 66.2 °F 63.3 °F 29.6 in NE 2.5 mph 4 mph 90.8% 0 in 62 W/m2
08:09 66.4 °F 63.3 °F 29.6 in NE 2.2 mph 4 mph 90.2% 0 in 70 W/m2
08:14 66.6 °F 63.5 °F 29.6 in NE 1.7 mph 3.5 mph 90% 0 in 97 W/m2
08:19 66.7 °F 63.7 °F 29.6 in ENE 1.3 mph 3.5 mph 90% 0 in 121 W/m2
08:24 66.9 °F 64 °F 29.6 in ENE 1.2 mph 3.5 mph 90% 0 in 137 W/m2
08:29 67.5 °F 64 °F 29.6 in ENE 2.5 mph 5 mph 89.2% 0 in 149 W/m2
08:34 67.6 °F 64.4 °F 29.6 in ENE 3 mph 5 mph 89% 0 in 162 W/m2
08:39 68 °F 64.6 °F 29.6 in East 1.9 mph 5 mph 88.9% 0 in 178 W/m2
08:44 68.4 °F 64.8 °F 29.7 in East 2.3 mph 5 mph 88% 0 in 195 W/m2
08:49 68.7 °F 65.1 °F 29.7 in East 1.5 mph 4 mph 88% 0 in 223 W/m2
08:54 69.3 °F 65.5 °F 29.7 in ENE 2.9 mph 4 mph 87.7% 0 in 229 W/m2
08:59 69.4 °F 65.3 °F 29.7 in ENE 3.1 mph 5 mph 87% 0 in 229 W/m2
09:04 69.4 °F 65.7 °F 29.7 in ENE 1.9 mph 5 mph 87.7% 0 in 229 W/m2
09:09 69.8 °F 65.8 °F 29.7 in ENE 2.7 mph 5 mph 87.3% 0 in 278 W/m2
09:14 70.3 °F 66 °F 29.7 in East 3 mph 6 mph 86.6% 0 in 278 W/m2
09:19 70.7 °F 66.4 °F 29.7 in ENE 3 mph 6 mph 86.1% 0 in 285 W/m2
09:24 71.1 °F 66.7 °F 29.7 in East 2.3 mph 6 mph 86% 0 in 306 W/m2
09:29 71.8 °F 66.9 °F 29.7 in East 2.4 mph 6 mph 85.2% 0 in 306 W/m2
09:34 72 °F 66.9 °F 29.7 in East 5.5 mph 9.2 mph 84.5% 0 in 297 W/m2
09:39 71.8 °F 66.7 °F 29.7 in East 4.9 mph 9.2 mph 84.1% 0 in 343 W/m2
09:44 72.5 °F 67.5 °F 29.7 in East 5.5 mph 9 mph 84.2% 0 in 362 W/m2
09:49 73 °F 67.8 °F 29.7 in East 4.8 mph 9.2 mph 83.7% 0 in 367 W/m2
09:54 72.9 °F 67.6 °F 29.7 in ESE 3.2 mph 9 mph 83.6% 0 in 200 W/m2
09:59 73 °F 68 °F 29.7 in East 2.6 mph 7 mph 84% 0 in 406 W/m2
10:04 73.9 °F 68.5 °F 29.7 in ENE 3.2 mph 7 mph 83.4% 0 in 422 W/m2
10:09 74.5 °F 68.7 °F 29.7 in East 3.9 mph 7 mph 82.1% 0 in 431 W/m2
10:14 74.8 °F 68.9 °F 29.7 in ENE 5 mph 9.2 mph 81.6% 0 in 436 W/m2
10:19 75 °F 68.7 °F 29.7 in ENE 6.3 mph 10.4 mph 80.6% 0 in 445 W/m2
10:24 75.6 °F 69.1 °F 29.7 in ENE 5.5 mph 10.4 mph 80.1% 0 in 450 W/m2
10:29 75.7 °F 69.1 °F 29.7 in ENE 5.8 mph 10 mph 79.7% 0 in 459 W/m2
10:34 76.1 °F 69.1 °F 29.7 in East 4.7 mph 9.2 mph 79.2% 0 in 480 W/m2
10:39 76.5 °F 69.4 °F 29.7 in East 5.2 mph 9.2 mph 78.6% 0 in 485 W/m2
10:44 76.5 °F 69.1 °F 29.7 in East 4.2 mph 9 mph 78.1% 0 in 497 W/m2
10:49 77.2 °F 69.6 °F 29.7 in NE 3.2 mph 9 mph 77.9% 0 in 506 W/m2
10:54 77.5 °F 69.4 °F 29.7 in ENE 6.3 mph 9.2 mph 76.4% 0 in 524 W/m2
10:59 77.2 °F 69.3 °F 29.7 in ENE 5.3 mph 9 mph 76.4% 0 in 531 W/m2
11:04 77.4 °F 69.6 °F 29.6 in ENE 5.9 mph 9.2 mph 77% 0 in 540 W/m2
11:09 77.7 °F 69.4 °F 29.6 in ENE 5.7 mph 9.2 mph 75.8% 0 in 548 W/m2
11:14 78.3 °F 70 °F 29.6 in NE 4.5 mph 9 mph 75.7% 0 in 563 W/m2
11:19 78.8 °F 70 °F 29.6 in ENE 4.5 mph 9.2 mph 74.8% 0 in 570 W/m2
11:24 78.6 °F 69.8 °F 29.6 in East 5.8 mph 10.4 mph 74.4% 0 in 578 W/m2
11:29 78.6 °F 69.6 °F 29.6 in ESE 4.5 mph 10 mph 74.1% 0 in 584 W/m2
11:34 79 °F 69.8 °F 29.6 in East 3.6 mph 8 mph 73.8% 0 in 596 W/m2
11:39 79.3 °F 69.8 °F 29.6 in ENE 4.7 mph 8.1 mph 72.6% 0 in 599 W/m2
11:44 79.5 °F 70.2 °F 29.6 in East 5.5 mph 10.4 mph 73% 0 in 612 W/m2
11:49 79.3 °F 70.2 °F 29.6 in ESE 4 mph 10 mph 73.5% 0 in 622 W/m2
11:54 79.5 °F 70 °F 29.6 in ESE 4.3 mph 8.1 mph 72.6% 0 in 633 W/m2
11:59 79.3 °F 69.6 °F 29.6 in ESE 3.8 mph 8 mph 72.2% 0 in 640 W/m2
12:04 80.2 °F 70.5 °F 29.6 in NE 4.3 mph 8.1 mph 72.3% 0 in 645 W/m2
12:09 80.6 °F 70.2 °F 29.6 in East 2.7 mph 6 mph 70.5% 0 in 652 W/m2
12:14 80.6 °F 70.3 °F 29.6 in East 3.9 mph 7 mph 71% 0 in 664 W/m2
12:19 80.8 °F 70.2 °F 29.6 in NE 4.2 mph 7 mph 70.1% 0 in 668 W/m2
12:24 81.1 °F 70.2 °F 29.6 in NE 4.1 mph 7 mph 69.4% 0 in 671 W/m2
12:29 81.1 °F 70 °F 29.6 in East 3.5 mph 7 mph 69.1% 0 in 680 W/m2
12:34 81 °F 70.3 °F 29.6 in SE 3 mph 7 mph 70.3% 0 in 682 W/m2
12:39 81.1 °F 70.3 °F 29.6 in ESE 4.2 mph 7 mph 69.5% 0 in 684 W/m2
12:44 81.1 °F 70 °F 29.6 in East 2.2 mph 7 mph 69.1% 0 in 693 W/m2
12:49 81.3 °F 70 °F 29.6 in NE 3.1 mph 7 mph 68.4% 0 in 708 W/m2
12:53 81.7 °F 70.2 °F 29.6 in East 1.9 mph 7 mph 68% 0 in 729 W/m2
12:59 82.4 °F 70 °F 29.6 in South 3.8 mph 8.1 mph 66.1% 0 in 763 W/m2
13:04 81.9 °F 68.5 °F 29.6 in SE 2.1 mph 8.1 mph 64% 0 in 691 W/m2
13:09 81.1 °F 68.7 °F 29.6 in SE 1.2 mph 8 mph 66% 0 in 264 W/m2
13:14 81.9 °F 69.6 °F 29.6 in SSW 2.9 mph 5 mph 66.6% 0 in 756 W/m2
13:19 82.4 °F 68 °F 29.6 in SW 1.9 mph 5 mph 62.1% 0 in 761 W/m2
13:24 82.8 °F 68.4 °F 29.6 in SW 3.6 mph 7 mph 62.2% 0 in 758 W/m2
13:29 83.1 °F 68.9 °F 29.6 in SW 2.7 mph 7 mph 62.6% 0 in 773 W/m2
13:34 83.5 °F 68.4 °F 29.6 in SW 2.7 mph 7 mph 60.5% 0 in 807 W/m2
13:39 84 °F 69.1 °F 29.6 in WSW 5 mph 8.1 mph 60.7% 0 in 802 W/m2
13:44 83.8 °F 68.2 °F 29.6 in SW 5 mph 8.1 mph 59.4% 0 in 796 W/m2
13:49 83.8 °F 68 °F 29.6 in SSW 4 mph 8 mph 59.1% 0 in 793 W/m2
13:54 83.5 °F 68.2 °F 29.6 in South 1.9 mph 7 mph 60.1% 0 in 793 W/m2
13:59 84 °F 68.7 °F 29.6 in SSW 2.1 mph 5 mph 60.1% 0 in 717 W/m2
14:04 84.9 °F 68.4 °F 29.6 in WNW 3.5 mph 8.1 mph 57.6% 0 in 726 W/m2
14:09 84.7 °F 67.8 °F 29.6 in NW 3 mph 8 mph 57.2% 0 in 721 W/m2
14:14 85.1 °F 68.5 °F 29.6 in NNW 3.7 mph 7 mph 57.9% 0 in 724 W/m2
14:19 85.1 °F 68.2 °F 29.6 in NW 3.2 mph 7 mph 57.2% 0 in 728 W/m2
14:24 85.1 °F 68 °F 29.6 in West 6.3 mph 10.4 mph 56.9% 0 in 722 W/m2
14:29 84.9 °F 67.6 °F 29.6 in West 4.5 mph 10 mph 56.1% 0 in 721 W/m2
14:34 84.7 °F 66.7 °F 29.6 in WNW 4.8 mph 9.2 mph 54.9% 0 in 710 W/m2
14:39 85.3 °F 66.7 °F 29.6 in West 5.3 mph 9 mph 53.9% 0 in 693 W/m2
14:44 84.7 °F 66.6 °F 29.6 in SW 5.3 mph 10.4 mph 54.7% 0 in 675 W/m2
14:49 84.4 °F 66.7 °F 29.6 in SW 4.2 mph 9 mph 55.5% 0 in 668 W/m2
14:54 84.7 °F 66.7 °F 29.6 in West 4.6 mph 9.2 mph 54.8% 0 in 661 W/m2
14:59 85.1 °F 66.2 °F 29.6 in SW 4.2 mph 8.1 mph 53.5% 0 in 659 W/m2
15:04 85.5 °F 66.9 °F 29.6 in WNW 5.2 mph 9.2 mph 53.8% 0 in 650 W/m2
15:09 85.6 °F 67.3 °F 29.6 in West 6.8 mph 10 mph 54.3% 0 in 636 W/m2
15:14 85.5 °F 67.5 °F 29.6 in West 3.9 mph 10.4 mph 54.7% 0 in 626 W/m2
15:19 85.8 °F 67.8 °F 29.6 in WSW 5.9 mph 10.4 mph 55% 0 in 624 W/m2
15:24 85.3 °F 67.6 °F 29.6 in WSW 5.1 mph 10 mph 55.7% 0 in 612 W/m2
15:29 86 °F 67.8 °F 29.6 in WNW 5.5 mph 9.2 mph 54.9% 0 in 596 W/m2
15:34 86 °F 67.8 °F 29.6 in West 5.5 mph 9.2 mph 54.8% 0 in 587 W/m2
15:39 85.8 °F 67.5 °F 29.6 in WSW 5.5 mph 11.5 mph 54.6% 0 in 582 W/m2
15:44 86 °F 67.5 °F 29.6 in SW 3.8 mph 12 mph 54.3% 0 in 580 W/m2
15:49 86 °F 67.5 °F 29.6 in WSW 4.5 mph 9 mph 54.3% 0 in 578 W/m2
15:54 86.5 °F 68 °F 29.6 in West 5.5 mph 9.2 mph 54.3% 0 in 577 W/m2
15:59 86.5 °F 67.5 °F 29.6 in WSW 5.6 mph 9.2 mph 53.5% 0 in 582 W/m2
16:04 85.3 °F 67.1 °F 29.6 in SW 4 mph 9 mph 54.5% 0 in 163 W/m2
16:09 85.1 °F 67.1 °F 29.6 in SW 6.6 mph 15 mph 55% 0 in 146 W/m2
16:14 84.9 °F 67.3 °F 29.6 in SW 4.7 mph 15 mph 55.7% 0 in 461 W/m2
16:19 85.1 °F 67.6 °F 29.6 in SW 4.8 mph 12 mph 56.1% 0 in 582 W/m2
16:24 86.2 °F 68.2 °F 29.6 in SSW 6.5 mph 13 mph 55.1% 0 in 575 W/m2
16:29 86.4 °F 68 °F 29.5 in SSW 8 mph 13 mph 54.2% 0 in 557 W/m2
16:34 86.2 °F 67.8 °F 29.5 in SSW 7.1 mph 14 mph 54.4% 0 in 529 W/m2
16:39 85.8 °F 67.8 °F 29.5 in SSW 6.5 mph 14 mph 55% 0 in 501 W/m2
16:44 85.8 °F 67.8 °F 29.5 in SSW 5.5 mph 12 mph 54.9% 0 in 501 W/m2
16:49 85.6 °F 67.8 °F 29.5 in SW 7.4 mph 11.5 mph 55.5% 0 in 485 W/m2
16:54 85.6 °F 67.8 °F 29.5 in SW 6.3 mph 12 mph 55.4% 0 in 471 W/m2
16:59 85.6 °F 67.8 °F 29.5 in SSW 6.2 mph 12 mph 55.3% 0 in 436 W/m2
17:04 85.3 °F 67.8 °F 29.5 in SSW 7.8 mph 12 mph 56% 0 in 387 W/m2
17:09 85.1 °F 67.8 °F 29.5 in South 6.6 mph 12 mph 56.6% 0 in 373 W/m2
17:14 84.9 °F 68 °F 29.5 in SW 4.9 mph 10 mph 56.8% 0 in 367 W/m2
17:19 84.7 °F 68 °F 29.5 in SSW 5.2 mph 10 mph 57.6% 0 in 315 W/m2
17:24 84.6 °F 67.8 °F 29.5 in SSW 7.1 mph 13 mph 57.3% 0 in 315 W/m2
17:29 84.4 °F 67.8 °F 29.5 in SW 7.6 mph 13 mph 57.5% 0 in 308 W/m2
17:34 84.4 °F 68 °F 29.5 in SSW 6.9 mph 13 mph 57.8% 0 in 301 W/m2
17:39 84.4 °F 68 °F 29.5 in SSW 6.7 mph 12 mph 58% 0 in 283 W/m2
17:44 84.2 °F 67.8 °F 29.5 in SSW 7.4 mph 13.8 mph 58% 0 in 274 W/m2
17:49 84.2 °F 67.8 °F 29.5 in SSW 6.7 mph 14 mph 58.2% 0 in 258 W/m2
17:54 84 °F 67.8 °F 29.5 in SSW 6.6 mph 12 mph 58.4% 0 in 246 W/m2
17:59 83.8 °F 68 °F 29.5 in SSW 6.6 mph 12 mph 59% 0 in 229 W/m2
18:04 83.7 °F 67.6 °F 29.5 in SSW 7.1 mph 15 mph 58.8% 0 in 218 W/m2
18:09 83.3 °F 67.5 °F 29.5 in SSW 6.5 mph 10.4 mph 59% 0 in 199 W/m2
18:14 83.1 °F 67.5 °F 29.5 in SSW 7.1 mph 13 mph 59.3% 0 in 188 W/m2
18:19 82.9 °F 67.6 °F 29.5 in SSW 6.7 mph 13 mph 60% 0 in 174 W/m2
18:24 82.8 °F 67.6 °F 29.5 in SSW 6.6 mph 11.5 mph 60.3% 0 in 60 W/m2
18:29 82.4 °F 67.3 °F 29.5 in SSW 5.6 mph 12 mph 60.6% 0 in 51 W/m2
18:34 82 °F 67.1 °F 29.5 in SSW 5.2 mph 10 mph 61% 0 in 86 W/m2
18:39 81.7 °F 67.3 °F 29.5 in SSW 5.1 mph 10.4 mph 61.6% 0 in 86 W/m2
18:44 81.3 °F 67.1 °F 29.5 in SSW 4.5 mph 10 mph 62% 0 in 32 W/m2
18:49 81 °F 66.9 °F 29.5 in SSW 3.9 mph 8 mph 62.5% 0 in 19 W/m2
18:54 80.6 °F 66.7 °F 29.5 in SW 3 mph 7 mph 62.8% 0 in 16 W/m2
18:59 80.2 °F 66.2 °F 29.5 in SW 2.7 mph 5 mph 62.5% 0 in 12 W/m2
19:04 79.7 °F 66 °F 29.5 in SSW 3.1 mph 6 mph 63% 0 in 11 W/m2
19:09 79.5 °F 65.7 °F 29.5 in SW 3.4 mph 6 mph 63% 0 in 11 W/m2
19:14 79.2 °F 65.7 °F 29.5 in SW 3.2 mph 6 mph 63.1% 0 in 7 W/m2
19:19 79 °F 65.1 °F 29.5 in SW 3.1 mph 6 mph 62.5% 0 in 5 W/m2
19:24 78.8 °F 65.1 °F 29.5 in SW 2.7 mph 6 mph 63% 0 in 0 W/m2
19:29 78.6 °F 64.9 °F 29.5 in SW 2.4 mph 4 mph 63% 0 in 0 W/m2
19:34 78.3 °F 64.9 °F 29.5 in SW 2.7 mph 4 mph 63.8% 0 in 0 W/m2
19:39 78.1 °F 65.1 °F 29.5 in SW 2.5 mph 4 mph 64.8% 0 in 0 W/m2
19:44 77.7 °F 64.9 °F 29.5 in SW 2.7 mph 5 mph 65% 0 in 0 W/m2
19:49 77.5 °F 64.8 °F 29.5 in SW 2.5 mph 5 mph 65% 0 in 0 W/m2
19:54 77.4 °F 64.8 °F 29.5 in SSW 3.8 mph 7 mph 65% 0 in 0 W/m2
19:59 77.4 °F 64.6 °F 29.5 in SW 4.5 mph 7 mph 65% 0 in 0 W/m2
20:04 77.2 °F 64.6 °F 29.5 in SW 3.8 mph 7 mph 65.2% 0 in 0 W/m2
20:09 76.8 °F 64.6 °F 29.5 in SW 2.9 mph 6 mph 65.8% 0 in 0 W/m2
20:14 76.5 °F 64.4 °F 29.5 in SW 2.9 mph 5 mph 66% 0 in 0 W/m2
20:19 76.3 °F 64.4 °F 29.5 in SW 3.1 mph 5 mph 66.9% 0 in 0 W/m2
20:24 75.7 °F 64.6 °F 29.5 in SW 2.5 mph 5 mph 68.2% 0 in 0 W/m2
20:29 75.6 °F 64.4 °F 29.5 in SW 3.2 mph 5 mph 68.6% 0 in 0 W/m2
20:34 75.6 °F 64.2 °F 29.5 in SSW 2.7 mph 5 mph 68% 0 in 0 W/m2
20:39 75.2 °F 64.2 °F 29.5 in SW 2.2 mph 5 mph 68.8% 0 in 0 W/m2
20:44 75 °F 64.2 °F 29.5 in SSW 1.8 mph 4 mph 69% 0 in 0 W/m2
20:49 74.7 °F 64.2 °F 29.5 in SW 1.7 mph 3.5 mph 69.7% 0 in 0 W/m2
20:54 74.3 °F 64.2 °F 29.5 in SW 0.6 mph 3 mph 70.7% 0 in 0 W/m2
20:59 73.8 °F 64 °F 29.5 in ENE 1.9 mph 4 mph 71.9% 0 in 0 W/m2
21:04 73 °F 63.9 °F 29.5 in ENE 2.4 mph 4 mph 72.9% 0 in 0 W/m2
21:09 72.3 °F 63.9 °F 29.5 in East 3.5 mph 6 mph 74.7% 0 in 0 W/m2
21:14 71.8 °F 63.7 °F 29.5 in East 4.1 mph 6 mph 76% 0 in 0 W/m2
21:19 71.8 °F 63.5 °F 29.5 in ESE 3.6 mph 6 mph 75.4% 0 in 0 W/m2
21:24 72.3 °F 63.7 °F 29.5 in East 3 mph 6 mph 74.4% 0 in 0 W/m2
21:29 72 °F 63.7 °F 29.5 in East 2.5 mph 5 mph 75% 0 in 0 W/m2
21:34 71.4 °F 63.5 °F 29.5 in East 2.5 mph 5 mph 76.2% 0 in 0 W/m2
21:38 71.1 °F 63.3 °F 29.5 in East 3 mph 5 mph 77% 0 in 0 W/m2
21:44 70.9 °F 63.3 °F 29.5 in East 2.1 mph 5 mph 77% 0 in 0 W/m2
21:49 70.7 °F 63.5 °F 29.5 in East 2.5 mph 6 mph 77.8% 0 in 0 W/m2
21:54 70.5 °F 63.5 °F 29.5 in ENE 4 mph 6 mph 78% 0 in 0 W/m2
21:59 70.7 °F 63.3 °F 29.5 in East 3.2 mph 6 mph 77.4% 0 in 0 W/m2
22:04 70.7 °F 63.1 °F 29.5 in East 3.2 mph 5 mph 77% 0 in 0 W/m2
22:09 70.7 °F 63.3 °F 29.5 in East 3.4 mph 5 mph 77.3% 0 in 0 W/m2
22:14 70.9 °F 63.3 °F 29.5 in ENE 2.5 mph 5 mph 77.1% 0 in 0 W/m2
22:19 70.7 °F 63.5 °F 29.5 in East 3.4 mph 7 mph 78% 0 in 0 W/m2
22:24 70.9 °F 63.9 °F 29.5 in East 2.9 mph 7 mph 78.6% 0 in 0 W/m2
22:29 70.9 °F 64 °F 29.5 in East 4.3 mph 8.1 mph 79.2% 0 in 0 W/m2
22:34 70.7 °F 64.2 °F 29.5 in ENE 5.4 mph 9.2 mph 80% 0 in 0 W/m2
22:39 70.7 °F 64.6 °F 29.5 in East 5.5 mph 10.4 mph 81% 0 in 0 W/m2
22:44 70.9 °F 65.1 °F 29.6 in East 5.3 mph 10 mph 82% 0 in 0 W/m2
22:49 70.9 °F 65.1 °F 29.6 in East 6.8 mph 11.5 mph 82% 0 in 0 W/m2
22:54 71.1 °F 65.1 °F 29.6 in ENE 6.5 mph 12 mph 82% 0 in 0 W/m2
22:59 70.9 °F 65.5 °F 29.6 in ENE 7.3 mph 16 mph 83.4% 0 in 0 W/m2
23:04 70.7 °F 65.7 °F 29.6 in East 9.1 mph 16.1 mph 84.3% 0 in 0 W/m2
23:09 70.3 °F 65.7 °F 29.6 in East 7.8 mph 16 mph 85% 0 in 0 W/m2
23:14 70.2 °F 65.7 °F 29.6 in ENE 8.4 mph 14 mph 85.7% 0 in 0 W/m2
23:19 70 °F 65.7 °F 29.6 in ENE 6.4 mph 13 mph 86% 0 in 0 W/m2
23:24 69.6 °F 65.3 °F 29.6 in East 7 mph 11.5 mph 86.1% 0 in 0 W/m2
23:29 69.3 °F 64.9 °F 29.6 in ENE 7.5 mph 15 mph 86.2% 0 in 0 W/m2
23:34 69.1 °F 64.6 °F 29.6 in ENE 9.5 mph 15 mph 86% 0 in 0 W/m2
23:39 68.7 °F 64.4 °F 29.6 in East 7.7 mph 15 mph 86% 0 in 0 W/m2
23:44 68.5 °F 64.2 °F 29.6 in East 7.1 mph 15 mph 86.3% 0 in 0 W/m2
23:49 68.4 °F 64.2 °F 29.6 in East 7.9 mph 14 mph 86.6% 0 in 0 W/m2
23:54 68.2 °F 64.2 °F 29.6 in East 8.5 mph 15 mph 86.9% 0 in 0 W/m2
23:59 68 °F 63.5 °F 29.6 in East 10.3 mph 17.3 mph 85.5% 0 in 0 W/m2
Stazione Meteorologica MeteoMincio Rivalta s/M (MN)
Con i complimenti di Weather Underground - 4 mb


METEO PILLOLE
I venti più violenti (escluso i tornado)
Mount Washington - New Hampshire
Il 12 aprile 1934 furono misurate raffiche a oltre 372 Km/h.

Do NOT follow this link or you will be banned from the site!